Zenken Maru — JG5556 — position and weather

sailwx.info

Track history (hours):
 
Tides and Currents Weather Stations Pressure Air Temp Water Temp Dewpoint Dewpoint Depression Visibility Wind Speed Wind Dir Waves Ship Positions

Zenken Maru

Last reported at 2015-Aug-30 19:31 UTC. Time now 2015-Aug-30 19:59 UTC.
Position N 35°21' E 139°41'.

Length 98 m; draft 7.2 m.

Type: Cargo ship. MMSI: 431100955.

Date/timePositionNaut miles runAvg speedWind from/ knotsBaromVisibWave heightAir tempDewpointWater temp
2015-Aug-30 19:31N 35°21' E 139°41'0 0.0
2015-Aug-30 18:31N 35°21' E 139°41'0 0.0
2015-Aug-30 17:31N 35°21' E 139°41'0 0.0
2015-Aug-30 16:31N 35°21' E 139°41'0 0.1
2015-Aug-30 15:31N 35°21' E 139°41'0 0.0
2015-Aug-30 14:31N 35°21' E 139°41'0 0.0
2015-Aug-30 13:31N 35°21' E 139°41'0 0.0
2015-Aug-30 12:31N 35°21' E 139°41'0 0.0
2015-Aug-30 11:31N 35°21' E 139°41'0 0.0
2015-Aug-30 10:31N 35°21' E 139°41'0 0.0
2015-Aug-30 09:31N 35°21' E 139°41'0 0.1
2015-Aug-30 08:31N 35°21' E 139°41'0 0.1
2015-Aug-30 07:31N 35°21' E 139°41'0 0.1
2015-Aug-30 06:31N 35°21' E 139°41'0 0.0
2015-Aug-30 05:31N 35°21' E 139°41'0 0.1
2015-Aug-30 04:31N 35°21' E 139°41'0 0.0
2015-Aug-30 03:31N 35°21' E 139°41'0 0.0
2015-Aug-30 02:31N 35°21' E 139°41'0 0.1
2015-Aug-30 01:31N 35°21' E 139°41'0 0.0
2015-Aug-30 00:31N 35°21' E 139°41'0 0.0
2015-Aug-29 23:31N 35°21' E 139°41'0 0.0
2015-Aug-29 22:31N 35°21' E 139°41'0 0.0
2015-Aug-29 21:31N 35°21' E 139°41'0 0.0
2015-Aug-29 20:31N 35°21' E 139°41'0 0.1
2015-Aug-29 19:31N 35°21' E 139°41'0 0.0
2015-Aug-29 18:31N 35°21' E 139°41'0 0.1
2015-Aug-29 17:31N 35°21' E 139°41'0 0.1
2015-Aug-29 16:31N 35°21' E 139°41'0 0.1
2015-Aug-29 15:31N 35°21' E 139°41'0 0.1
2015-Aug-29 14:31N 35°21' E 139°41'0 0.0
2015-Aug-29 13:31N 35°21' E 139°41'0 0.1
2015-Aug-29 12:31N 35°21' E 139°41'0 0.1
2015-Aug-29 11:31N 35°21' E 139°41'0 0.0
2015-Aug-29 10:31N 35°21' E 139°41'0 0.0
2015-Aug-29 09:31N 35°21' E 139°41'0 0.0
2015-Aug-29 08:31N 35°21' E 139°41'0 0.0
2015-Aug-29 07:31N 35°21' E 139°41'0 0.0
2015-Aug-29 06:31N 35°21' E 139°41'0 0.1
2015-Aug-29 05:31N 35°21' E 139°41'3 3.2
2015-Aug-29 04:33N 35°23' E 139°39'0 0.0
2015-Aug-29 03:33N 35°23' E 139°39'0 0.0
2015-Aug-29 02:33N 35°23' E 139°39'0 0.0
2015-Aug-29 01:33N 35°23' E 139°39'0 0.0
2015-Aug-29 00:33N 35°23' E 139°39'0 0.0
2015-Aug-28 23:33N 35°23' E 139°39'0 0.0
2015-Aug-28 22:33N 35°23' E 139°39'0 0.0
2015-Aug-28 21:33N 35°23' E 139°39'0 0.0
2015-Aug-28 20:33N 35°23' E 139°39'0 0.0
2015-Aug-28 19:33N 35°23' E 139°39'0 0.0
2015-Aug-28 18:33N 35°23' E 139°39'0 0.0
2015-Aug-28 17:33N 35°23' E 139°39'0 0.0
2015-Aug-28 16:33N 35°23' E 139°39'0 0.0
2015-Aug-28 15:33N 35°23' E 139°39'0 0.0
2015-Aug-28 14:33N 35°23' E 139°39'0 0.0
2015-Aug-28 13:33N 35°23' E 139°39'0 0.0
2015-Aug-28 12:33N 35°23' E 139°39'0 0.0
2015-Aug-28 11:33N 35°23' E 139°39'0 0.0
2015-Aug-28 10:33N 35°23' E 139°39'0 0.0
2015-Aug-28 09:33N 35°23' E 139°39'0 0.0
2015-Aug-28 08:33N 35°23' E 139°39'0 0.0
2015-Aug-28 07:33N 35°23' E 139°39'0 0.0
2015-Aug-28 06:33N 35°23' E 139°39'0 0.0
2015-Aug-28 05:33N 35°23' E 139°39'0 0.0
2015-Aug-28 04:33N 35°23' E 139°39'0 0.0
2015-Aug-28 03:33N 35°23' E 139°39'0 0.0
2015-Aug-28 02:33N 35°23' E 139°39'0 0.0
2015-Aug-28 01:33N 35°23' E 139°39'0 0.0
2015-Aug-28 00:31N 35°23' E 139°39'0 0.0
2015-Aug-27 23:32N 35°23' E 139°39'0 0.2
2015-Aug-27 22:33N 35°23' E 139°39'8 7.6
2015-Aug-27 21:33N 35°17' E 139°45'8 8.3
2015-Aug-27 20:33N 35°09' E 139°46'10 9.5
2015-Aug-27 19:33N 34°60' E 139°43'8 7.7
2015-Aug-27 18:33N 34°53' E 139°46'12 9.7
2015-Aug-27 17:18N 34°42' E 139°53'9 0.3
2015-Aug-26 07:18N 34°49' E 139°48'811.1
2015-Aug-26 06:33N 34°57' E 139°44'1111.5
2015-Aug-26 05:33N 35°08' E 139°45'1110.7
2015-Aug-26 04:33N 35°19' E 139°43'6 5.6
2015-Aug-26 03:33N 35°23' E 139°39'0 0.0
2015-Aug-26 02:33N 35°23' E 139°39'0 0.0
2015-Aug-26 01:32N 35°23' E 139°39'0 0.0
2015-Aug-26 00:32N 35°23' E 139°39'0 0.0
2015-Aug-25 23:32N 35°23' E 139°39'0 0.3
2015-Aug-25 22:33N 35°23' E 139°39'3 3.0
2015-Aug-25 21:33N 35°21' E 139°41'0 0.0
2015-Aug-25 20:31N 35°21' E 139°41'0 0.1
2015-Aug-25 19:31N 35°21' E 139°41'0 0.0
2015-Aug-25 18:31N 35°21' E 139°41'0 0.0
2015-Aug-25 17:31N 35°21' E 139°41'0 0.0
2015-Aug-25 16:31N 35°21' E 139°41'0 0.0
2015-Aug-25 15:31N 35°21' E 139°41'0 0.0
2015-Aug-25 14:31N 35°21' E 139°41'0 0.0
2015-Aug-25 13:31N 35°21' E 139°41'0 0.0
2015-Aug-25 12:31N 35°21' E 139°41'0 0.0
2015-Aug-25 11:31N 35°21' E 139°41'0 0.0
2015-Aug-25 10:28N 35°21' E 139°41'0 0.0
2015-Aug-25 09:31N 35°21' E 139°41'0 0.0
2015-Aug-25 08:31N 35°21' E 139°41'0 0.0
2015-Aug-25 07:31N 35°21' E 139°41'0 0.0
2015-Aug-25 06:31N 35°21' E 139°41'0 0.0
2015-Aug-25 05:28N 35°21' E 139°41'0 0.0
2015-Aug-25 04:31N 35°21' E 139°41'0 0.0
2015-Aug-25 03:31N 35°21' E 139°41'0 0.0
2015-Aug-25 02:31N 35°21' E 139°41'0 0.0
2015-Aug-25 01:31N 35°21' E 139°41'0 0.0
2015-Aug-25 00:31N 35°21' E 139°41'0 0.0
2015-Aug-24 23:31N 35°21' E 139°41'0 0.0
2015-Aug-24 22:31N 35°21' E 139°41'0 0.0
2015-Aug-24 21:31N 35°21' E 139°41'0 0.0
2015-Aug-24 20:31N 35°21' E 139°41'0 0.0
2015-Aug-24 19:31N 35°21' E 139°41'0 0.0
2015-Aug-24 18:31N 35°21' E 139°41'0 0.0
2015-Aug-24 17:31N 35°21' E 139°41'0 0.0
2015-Aug-24 16:31N 35°21' E 139°41'0 0.0
2015-Aug-24 15:31N 35°21' E 139°41'0 0.0
2015-Aug-24 14:31N 35°21' E 139°41'0 0.0
2015-Aug-24 13:31N 35°21' E 139°41'0 0.0
2015-Aug-24 12:31N 35°21' E 139°41'0 0.0
2015-Aug-24 11:31N 35°21' E 139°41'0 0.0
2015-Aug-24 10:28N 35°21' E 139°41'0 0.0
2015-Aug-24 09:31N 35°21' E 139°41'0 0.0
2015-Aug-24 08:31N 35°21' E 139°41'0 0.0
2015-Aug-24 07:31N 35°21' E 139°41'0 0.0
2015-Aug-24 06:31N 35°21' E 139°41'0 0.0
2015-Aug-24 05:31N 35°21' E 139°41'0 0.0
2015-Aug-24 04:28N 35°21' E 139°41'3 3.1
2015-Aug-24 03:31N 35°23' E 139°39'0 0.0
2015-Aug-24 02:31N 35°23' E 139°39'0 0.0
2015-Aug-24 01:31N 35°23' E 139°39'0 0.0
2015-Aug-24 00:31N 35°23' E 139°39'0 0.3
2015-Aug-23 23:33N 35°23' E 139°39'3 2.8
2015-Aug-23 22:32N 35°21' E 139°41'0 0.0
2015-Aug-23 21:32N 35°21' E 139°41'0 0.0
2015-Aug-23 20:32N 35°21' E 139°41'0 0.0
2015-Aug-23 19:32N 35°21' E 139°41'0 0.0
2015-Aug-23 18:32N 35°21' E 139°41'0 0.0
2015-Aug-23 17:32N 35°21' E 139°41'0 0.0
2015-Aug-23 16:29N 35°21' E 139°41'0 0.0
2015-Aug-23 15:32N 35°21' E 139°41'0 0.0
2015-Aug-23 14:32N 35°21' E 139°41'0 0.0
2015-Aug-23 13:32N 35°21' E 139°41'0 0.0
2015-Aug-23 12:32N 35°21' E 139°41'0 0.0
2015-Aug-23 11:32N 35°21' E 139°41'0 0.0
2015-Aug-23 10:32N 35°21' E 139°41'0 0.0
2015-Aug-23 09:29N 35°21' E 139°41'0 0.0
2015-Aug-23 08:32N 35°21' E 139°41'0 0.0
2015-Aug-23 07:32N 35°21' E 139°41'0 0.0
2015-Aug-23 06:32N 35°21' E 139°41'0 0.0
2015-Aug-23 05:32N 35°21' E 139°41'0 0.0
2015-Aug-23 04:29N 35°21' E 139°41'0 0.0
2015-Aug-23 03:32N 35°21' E 139°41'0 0.0
2015-Aug-23 02:32N 35°21' E 139°41'0 0.0
2015-Aug-23 01:32N 35°21' E 139°41'0 0.0
2015-Aug-23 00:32N 35°21' E 139°41'0 0.0
2015-Aug-22 23:32N 35°21' E 139°41'0 0.0
2015-Aug-22 22:32N 35°21' E 139°41'0 0.0
2015-Aug-22 21:32N 35°21' E 139°41'0 0.0
2015-Aug-22 20:32N 35°21' E 139°41'0 0.0
2015-Aug-22 19:32N 35°21' E 139°41'0 0.0
2015-Aug-22 18:32N 35°21' E 139°41'0 0.0
2015-Aug-22 17:32N 35°21' E 139°41'0 0.0
2015-Aug-22 16:32N 35°21' E 139°41'0 0.1
2015-Aug-22 15:32N 35°21' E 139°41'0 0.1
2015-Aug-22 14:32N 35°21' E 139°41'0 0.0
2015-Aug-22 13:32N 35°21' E 139°41'0 0.1
2015-Aug-22 12:32N 35°21' E 139°41'0 0.0
2015-Aug-22 11:32N 35°21' E 139°41'0 0.0
2015-Aug-22 10:32N 35°21' E 139°41'0 0.0
2015-Aug-22 09:32N 35°21' E 139°41'0 0.0
2015-Aug-22 08:32N 35°21' E 139°41'0 0.0
2015-Aug-22 07:32N 35°21' E 139°41'0 0.0
2015-Aug-22 06:32N 35°21' E 139°41'0 0.0
2015-Aug-22 05:32N 35°21' E 139°41'0 0.0
2015-Aug-22 04:32N 35°21' E 139°41'0 0.0
2015-Aug-22 03:29N 35°21' E 139°41'0 0.0
2015-Aug-22 02:32N 35°21' E 139°41'0 0.0
2015-Aug-22 01:32N 35°21' E 139°41'0 0.0
2015-Aug-22 00:32N 35°21' E 139°41'0 0.0
2015-Aug-21 23:32N 35°21' E 139°41'0 0.0
2015-Aug-21 22:32N 35°21' E 139°41'0 0.0
2015-Aug-21 21:32N 35°21' E 139°41'0 0.0
2015-Aug-21 20:32N 35°21' E 139°41'0 0.0
2015-Aug-21 19:32N 35°21' E 139°41'0 0.0
2015-Aug-21 18:32N 35°21' E 139°41'0 0.0
2015-Aug-21 17:32N 35°21' E 139°41'0 0.0
2015-Aug-21 16:32N 35°21' E 139°41'0 0.1
2015-Aug-21 15:32N 35°21' E 139°41'0 0.0
2015-Aug-21 14:32N 35°21' E 139°41'0 0.0
2015-Aug-21 13:29N 35°21' E 139°41'0 0.0
2015-Aug-21 12:32N 35°21' E 139°41'0 0.1
2015-Aug-21 11:32N 35°21' E 139°41'0 0.1
2015-Aug-21 10:32N 35°21' E 139°41'0 0.0
2015-Aug-21 09:32N 35°21' E 139°41'0 0.0
2015-Aug-21 08:32N 35°21' E 139°41'0 0.0
2015-Aug-21 07:32N 35°21' E 139°41'0 0.0
2015-Aug-21 06:32N 35°21' E 139°41'0 0.0
2015-Aug-21 05:32N 35°21' E 139°41'0 0.0
2015-Aug-21 04:32N 35°21' E 139°41'0 0.0
2015-Aug-21 03:32N 35°21' E 139°41'0 0.0
2015-Aug-21 02:32N 35°21' E 139°41'0 0.0
2015-Aug-21 01:32N 35°21' E 139°41'0 0.0
2015-Aug-21 00:32N 35°21' E 139°41'0 0.0
2015-Aug-20 23:32N 35°21' E 139°41'0 0.0
2015-Aug-20 22:29N 35°21' E 139°41'0 0.0
2015-Aug-20 21:32N 35°21' E 139°41'0 0.0
2015-Aug-20 20:32N 35°21' E 139°41'0 0.0
2015-Aug-20 19:32N 35°21' E 139°41'  
Track history (hours):
 
Tides and Currents Weather Stations Pressure Air Temp Water Temp Dewpoint Dewpoint Depression Visibility Wind Speed Wind Dir Waves Ship Positions

Zenken Maru

Last reported at 2015-Aug-30 19:31 UTC. Time now 2015-Aug-30 19:59 UTC.
Position N 35°21' E 139°41'.

Length 98 m; draft 7.2 m.

Type: Cargo ship. MMSI: 431100955.

Date/timePositionNaut miles runAvg speedWind from/ knotsBaromVisibWave heightAir tempDewpointWater temp
2015-Aug-30 19:31N 35°21' E 139°41'0 0.0
2015-Aug-30 18:31N 35°21' E 139°41'0 0.0
2015-Aug-30 17:31N 35°21' E 139°41'0 0.0
2015-Aug-30 16:31N 35°21' E 139°41'0 0.1
2015-Aug-30 15:31N 35°21' E 139°41'0 0.0
2015-Aug-30 14:31N 35°21' E 139°41'0 0.0
2015-Aug-30 13:31N 35°21' E 139°41'0 0.0
2015-Aug-30 12:31N 35°21' E 139°41'0 0.0
2015-Aug-30 11:31N 35°21' E 139°41'0 0.0
2015-Aug-30 10:31N 35°21' E 139°41'0 0.0
2015-Aug-30 09:31N 35°21' E 139°41'0 0.1
2015-Aug-30 08:31N 35°21' E 139°41'0 0.1
2015-Aug-30 07:31N 35°21' E 139°41'0 0.1
2015-Aug-30 06:31N 35°21' E 139°41'0 0.0
2015-Aug-30 05:31N 35°21' E 139°41'0 0.1
2015-Aug-30 04:31N 35°21' E 139°41'0 0.0
2015-Aug-30 03:31N 35°21' E 139°41'0 0.0
2015-Aug-30 02:31N 35°21' E 139°41'0 0.1
2015-Aug-30 01:31N 35°21' E 139°41'0 0.0
2015-Aug-30 00:31N 35°21' E 139°41'0 0.0
2015-Aug-29 23:31N 35°21' E 139°41'0 0.0
2015-Aug-29 22:31N 35°21' E 139°41'0 0.0
2015-Aug-29 21:31N 35°21' E 139°41'0 0.0
2015-Aug-29 20:31N 35°21' E 139°41'0 0.1
2015-Aug-29 19:31N 35°21' E 139°41'0 0.0
2015-Aug-29 18:31N 35°21' E 139°41'0 0.1
2015-Aug-29 17:31N 35°21' E 139°41'0 0.1
2015-Aug-29 16:31N 35°21' E 139°41'0 0.1
2015-Aug-29 15:31N 35°21' E 139°41'0 0.1
2015-Aug-29 14:31N 35°21' E 139°41'0 0.0
2015-Aug-29 13:31N 35°21' E 139°41'0 0.1
2015-Aug-29 12:31N 35°21' E 139°41'0 0.1
2015-Aug-29 11:31N 35°21' E 139°41'0 0.0
2015-Aug-29 10:31N 35°21' E 139°41'0 0.0
2015-Aug-29 09:31N 35°21' E 139°41'0 0.0
2015-Aug-29 08:31N 35°21' E 139°41'0 0.0
2015-Aug-29 07:31N 35°21' E 139°41'0 0.0
2015-Aug-29 06:31N 35°21' E 139°41'0 0.1
2015-Aug-29 05:31N 35°21' E 139°41'3 3.2
2015-Aug-29 04:33N 35°23' E 139°39'0 0.0
2015-Aug-29 03:33N 35°23' E 139°39'0 0.0
2015-Aug-29 02:33N 35°23' E 139°39'0 0.0
2015-Aug-29 01:33N 35°23' E 139°39'0 0.0
2015-Aug-29 00:33N 35°23' E 139°39'0 0.0
2015-Aug-28 23:33N 35°23' E 139°39'0 0.0
2015-Aug-28 22:33N 35°23' E 139°39'0 0.0
2015-Aug-28 21:33N 35°23' E 139°39'0 0.0
2015-Aug-28 20:33N 35°23' E 139°39'0 0.0
2015-Aug-28 19:33N 35°23' E 139°39'0 0.0
2015-Aug-28 18:33N 35°23' E 139°39'0 0.0
2015-Aug-28 17:33N 35°23' E 139°39'0 0.0
2015-Aug-28 16:33N 35°23' E 139°39'0 0.0
2015-Aug-28 15:33N 35°23' E 139°39'0 0.0
2015-Aug-28 14:33N 35°23' E 139°39'0 0.0
2015-Aug-28 13:33N 35°23' E 139°39'0 0.0
2015-Aug-28 12:33N 35°23' E 139°39'0 0.0
2015-Aug-28 11:33N 35°23' E 139°39'0 0.0
2015-Aug-28 10:33N 35°23' E 139°39'0 0.0
2015-Aug-28 09:33N 35°23' E 139°39'0 0.0
2015-Aug-28 08:33N 35°23' E 139°39'0 0.0
2015-Aug-28 07:33N 35°23' E 139°39'0 0.0
2015-Aug-28 06:33N 35°23' E 139°39'0 0.0
2015-Aug-28 05:33N 35°23' E 139°39'0 0.0
2015-Aug-28 04:33N 35°23' E 139°39'0 0.0
2015-Aug-28 03:33N 35°23' E 139°39'0 0.0
2015-Aug-28 02:33N 35°23' E 139°39'0 0.0
2015-Aug-28 01:33N 35°23' E 139°39'0 0.0
2015-Aug-28 00:31N 35°23' E 139°39'0 0.0
2015-Aug-27 23:32N 35°23' E 139°39'0 0.2
2015-Aug-27 22:33N 35°23' E 139°39'8 7.6
2015-Aug-27 21:33N 35°17' E 139°45'8 8.3
2015-Aug-27 20:33N 35°09' E 139°46'10 9.5
2015-Aug-27 19:33N 34°60' E 139°43'8 7.7
2015-Aug-27 18:33N 34°53' E 139°46'12 9.7
2015-Aug-27 17:18N 34°42' E 139°53'9 0.3
2015-Aug-26 07:18N 34°49' E 139°48'811.1
2015-Aug-26 06:33N 34°57' E 139°44'1111.5
2015-Aug-26 05:33N 35°08' E 139°45'1110.7
2015-Aug-26 04:33N 35°19' E 139°43'6 5.6
2015-Aug-26 03:33N 35°23' E 139°39'0 0.0
2015-Aug-26 02:33N 35°23' E 139°39'0 0.0
2015-Aug-26 01:32N 35°23' E 139°39'0 0.0
2015-Aug-26 00:32N 35°23' E 139°39'0 0.0
2015-Aug-25 23:32N 35°23' E 139°39'0 0.3
2015-Aug-25 22:33N 35°23' E 139°39'3 3.0
2015-Aug-25 21:33N 35°21' E 139°41'0 0.0
2015-Aug-25 20:31N 35°21' E 139°41'0 0.1
2015-Aug-25 19:31N 35°21' E 139°41'0 0.0
2015-Aug-25 18:31N 35°21' E 139°41'0 0.0
2015-Aug-25 17:31N 35°21' E 139°41'0 0.0
2015-Aug-25 16:31N 35°21' E 139°41'0 0.0
2015-Aug-25 15:31N 35°21' E 139°41'0 0.0
2015-Aug-25 14:31N 35°21' E 139°41'0 0.0
2015-Aug-25 13:31N 35°21' E 139°41'0 0.0
2015-Aug-25 12:31N 35°21' E 139°41'0 0.0
2015-Aug-25 11:31N 35°21' E 139°41'0 0.0
2015-Aug-25 10:28N 35°21' E 139°41'0 0.0
2015-Aug-25 09:31N 35°21' E 139°41'0 0.0
2015-Aug-25 08:31N 35°21' E 139°41'0 0.0
2015-Aug-25 07:31N 35°21' E 139°41'0 0.0
2015-Aug-25 06:31N 35°21' E 139°41'0 0.0
2015-Aug-25 05:28N 35°21' E 139°41'0 0.0
2015-Aug-25 04:31N 35°21' E 139°41'0 0.0
2015-Aug-25 03:31N 35°21' E 139°41'0 0.0
2015-Aug-25 02:31N 35°21' E 139°41'0 0.0
2015-Aug-25 01:31N 35°21' E 139°41'0 0.0
2015-Aug-25 00:31N 35°21' E 139°41'0 0.0
2015-Aug-24 23:31N 35°21' E 139°41'0 0.0
2015-Aug-24 22:31N 35°21' E 139°41'0 0.0
2015-Aug-24 21:31N 35°21' E 139°41'0 0.0
2015-Aug-24 20:31N 35°21' E 139°41'0 0.0
2015-Aug-24 19:31N 35°21' E 139°41'0 0.0
2015-Aug-24 18:31N 35°21' E 139°41'0 0.0
2015-Aug-24 17:31N 35°21' E 139°41'0 0.0
2015-Aug-24 16:31N 35°21' E 139°41'0 0.0
2015-Aug-24 15:31N 35°21' E 139°41'0 0.0
2015-Aug-24 14:31N 35°21' E 139°41'0 0.0
2015-Aug-24 13:31N 35°21' E 139°41'0 0.0
2015-Aug-24 12:31N 35°21' E 139°41'0 0.0
2015-Aug-24 11:31N 35°21' E 139°41'0 0.0
2015-Aug-24 10:28N 35°21' E 139°41'0 0.0
2015-Aug-24 09:31N 35°21' E 139°41'0 0.0
2015-Aug-24 08:31N 35°21' E 139°41'0 0.0
2015-Aug-24 07:31N 35°21' E 139°41'0 0.0
2015-Aug-24 06:31N 35°21' E 139°41'0 0.0
2015-Aug-24 05:31N 35°21' E 139°41'0 0.0
2015-Aug-24 04:28N 35°21' E 139°41'3 3.1
2015-Aug-24 03:31N 35°23' E 139°39'0 0.0
2015-Aug-24 02:31N 35°23' E 139°39'0 0.0
2015-Aug-24 01:31N 35°23' E 139°39'0 0.0
2015-Aug-24 00:31N 35°23' E 139°39'0 0.3
2015-Aug-23 23:33N 35°23' E 139°39'3 2.8
2015-Aug-23 22:32N 35°21' E 139°41'0 0.0
2015-Aug-23 21:32N 35°21' E 139°41'0 0.0
2015-Aug-23 20:32N 35°21' E 139°41'0 0.0
2015-Aug-23 19:32N 35°21' E 139°41'0 0.0
2015-Aug-23 18:32N 35°21' E 139°41'0 0.0
2015-Aug-23 17:32N 35°21' E 139°41'0 0.0
2015-Aug-23 16:29N 35°21' E 139°41'0 0.0
2015-Aug-23 15:32N 35°21' E 139°41'0 0.0
2015-Aug-23 14:32N 35°21' E 139°41'0 0.0
2015-Aug-23 13:32N 35°21' E 139°41'0 0.0
2015-Aug-23 12:32N 35°21' E 139°41'0 0.0
2015-Aug-23 11:32N 35°21' E 139°41'0 0.0
2015-Aug-23 10:32N 35°21' E 139°41'0 0.0
2015-Aug-23 09:29N 35°21' E 139°41'0 0.0
2015-Aug-23 08:32N 35°21' E 139°41'0 0.0
2015-Aug-23 07:32N 35°21' E 139°41'0 0.0
2015-Aug-23 06:32N 35°21' E 139°41'0 0.0
2015-Aug-23 05:32N 35°21' E 139°41'0 0.0
2015-Aug-23 04:29N 35°21' E 139°41'0 0.0
2015-Aug-23 03:32N 35°21' E 139°41'0 0.0
2015-Aug-23 02:32N 35°21' E 139°41'0 0.0
2015-Aug-23 01:32N 35°21' E 139°41'0 0.0
2015-Aug-23 00:32N 35°21' E 139°41'0 0.0
2015-Aug-22 23:32N 35°21' E 139°41'0 0.0
2015-Aug-22 22:32N 35°21' E 139°41'0 0.0
2015-Aug-22 21:32N 35°21' E 139°41'0 0.0
2015-Aug-22 20:32N 35°21' E 139°41'0 0.0
2015-Aug-22 19:32N 35°21' E 139°41'0 0.0
2015-Aug-22 18:32N 35°21' E 139°41'0 0.0
2015-Aug-22 17:32N 35°21' E 139°41'0 0.0
2015-Aug-22 16:32N 35°21' E 139°41'0 0.1
2015-Aug-22 15:32N 35°21' E 139°41'0 0.1
2015-Aug-22 14:32N 35°21' E 139°41'0 0.0
2015-Aug-22 13:32N 35°21' E 139°41'0 0.1
2015-Aug-22 12:32N 35°21' E 139°41'0 0.0
2015-Aug-22 11:32N 35°21' E 139°41'0 0.0
2015-Aug-22 10:32N 35°21' E 139°41'0 0.0
2015-Aug-22 09:32N 35°21' E 139°41'0 0.0
2015-Aug-22 08:32N 35°21' E 139°41'0 0.0
2015-Aug-22 07:32N 35°21' E 139°41'0 0.0
2015-Aug-22 06:32N 35°21' E 139°41'0 0.0
2015-Aug-22 05:32N 35°21' E 139°41'0 0.0
2015-Aug-22 04:32N 35°21' E 139°41'0 0.0
2015-Aug-22 03:29N 35°21' E 139°41'0 0.0
2015-Aug-22 02:32N 35°21' E 139°41'0 0.0
2015-Aug-22 01:32N 35°21' E 139°41'0 0.0
2015-Aug-22 00:32N 35°21' E 139°41'0 0.0
2015-Aug-21 23:32N 35°21' E 139°41'0 0.0
2015-Aug-21 22:32N 35°21' E 139°41'0 0.0
2015-Aug-21 21:32N 35°21' E 139°41'0 0.0
2015-Aug-21 20:32N 35°21' E 139°41'0 0.0
2015-Aug-21 19:32N 35°21' E 139°41'0 0.0
2015-Aug-21 18:32N 35°21' E 139°41'0 0.0
2015-Aug-21 17:32N 35°21' E 139°41'0 0.0
2015-Aug-21 16:32N 35°21' E 139°41'0 0.1
2015-Aug-21 15:32N 35°21' E 139°41'0 0.0
2015-Aug-21 14:32N 35°21' E 139°41'0 0.0
2015-Aug-21 13:29N 35°21' E 139°41'0 0.0
2015-Aug-21 12:32N 35°21' E 139°41'0 0.1
2015-Aug-21 11:32N 35°21' E 139°41'0 0.1
2015-Aug-21 10:32N 35°21' E 139°41'0 0.0
2015-Aug-21 09:32N 35°21' E 139°41'0 0.0
2015-Aug-21 08:32N 35°21' E 139°41'0 0.0
2015-Aug-21 07:32N 35°21' E 139°41'0 0.0
2015-Aug-21 06:32N 35°21' E 139°41'0 0.0
2015-Aug-21 05:32N 35°21' E 139°41'0 0.0
2015-Aug-21 04:32N 35°21' E 139°41'0 0.0
2015-Aug-21 03:32N 35°21' E 139°41'0 0.0
2015-Aug-21 02:32N 35°21' E 139°41'0 0.0
2015-Aug-21 01:32N 35°21' E 139°41'0 0.0
2015-Aug-21 00:32N 35°21' E 139°41'0 0.0
2015-Aug-20 23:32N 35°21' E 139°41'0 0.0
2015-Aug-20 22:29N 35°21' E 139°41'0 0.0
2015-Aug-20 21:32N 35°21' E 139°41'0 0.0
2015-Aug-20 20:32N 35°21' E 139°41'0 0.0
2015-Aug-20 19:32N 35°21' E 139°41'  

Dump ship's entire track history